メインページ
METAR-TAF:

METAR-TAF

空港 :

Sirri Island, イラン

緯度: 25-54-34N, 経度: 054-32-22E, 海抜: 13m

現時点の気象観測

当レポートは10時間23分前の15:00(UTC)に作成
西/南西の風 6kt
気温 34°C
湿度 71%
気圧 1006 hPa
視程: 5000m
煙霧

METAR: OIBS 241500Z 24006KT 5000 HZ NSC 34/28 Q1006

時間: 04:53 (01:23 UTC)


TAF: 見つかりません

4,000以上の空港の気象観測と天気予報(METAR報とTAF報)

利用可能な観測所は地図上に黄色い丸と赤い丸で示す。

丸の上にカーソルを重ねると観測所名を参照できる。

次にクリックすると気象観測と天気予報を参照できる。

マップの切り替え:黒色「×」印の緑ボタンをクリックして拡大、「-」印の緑ボタンをクリックして縮小、緑色の三角印をクリックして隣りの地図に切り替え


METAR-TAF: